createdAt,value
2022-10-22T00:00:22.009Z,5.03
2022-10-22T00:02:54.531Z,4.50
2022-10-22T00:05:23.345Z,5.20
2022-10-22T00:07:51.983Z,5.93
2022-10-22T00:10:21.038Z,4.57
2022-10-22T00:12:52.385Z,4.47
2022-10-22T00:15:21.214Z,4.00
2022-10-22T00:17:49.894Z,5.03
2022-10-22T00:20:20.613Z,5.00
2022-10-22T00:22:54.083Z,5.28
2022-10-22T00:25:23.188Z,5.22
2022-10-22T00:27:51.881Z,5.00
2022-10-22T00:30:20.716Z,4.68
2022-10-22T00:32:51.912Z,4.88
2022-10-22T00:35:24.371Z,5.13
2022-10-22T00:37:53.537Z,4.68
2022-10-22T00:40:24.301Z,4.85
2022-10-22T00:42:53.374Z,6.10
2022-10-22T00:45:25.308Z,5.07
2022-10-22T00:47:58.902Z,5.15
2022-10-22T00:50:32.803Z,4.35
2022-10-22T00:53:07.693Z,4.70
2022-10-22T00:55:36.876Z,4.80
2022-10-22T00:58:09.014Z,4.97
2022-10-22T01:00:38.118Z,5.85
2022-10-22T01:03:09.297Z,5.85
2022-10-22T01:05:44.085Z,4.40
2022-10-22T01:08:20.593Z,5.75
2022-10-22T01:10:58.651Z,3.95
2022-10-22T01:13:38.048Z,3.60
2022-10-22T01:16:12.747Z,4.35
2022-10-22T01:18:49.132Z,4.25
2022-10-22T01:21:29.969Z,3.90
2022-10-22T01:24:25.925Z,4.88
2022-10-22T01:27:39.028Z,5.78
2022-10-22T01:30:12.119Z,4.10
2022-10-22T01:32:45.805Z,3.55
2022-10-22T01:35:19.275Z,4.78
2022-10-22T01:37:53.185Z,3.95
2022-10-22T01:40:23.572Z,3.85
2022-10-22T01:42:58.889Z,4.20
2022-10-22T01:45:31.443Z,3.88
2022-10-22T01:48:09.769Z,5.47
2022-10-22T01:50:58.417Z,3.80
2022-10-22T01:53:34.355Z,4.43
2022-10-22T01:56:17.501Z,4.72
2022-10-22T01:58:54.579Z,4.45
2022-10-22T02:01:35.160Z,3.72
2022-10-22T02:04:11.398Z,3.85
2022-10-22T02:06:42.772Z,4.28
2022-10-22T02:09:17.084Z,5.70
2022-10-22T02:11:47.454Z,4.47
2022-10-22T02:14:19.554Z,3.95
2022-10-22T02:16:51.751Z,4.50
2022-10-22T02:19:27.427Z,5.07
2022-10-22T02:21:56.684Z,4.28
2022-10-22T02:24:26.014Z,3.67
2022-10-22T02:27:06.893Z,3.78
2022-10-22T02:29:41.136Z,4.50
2022-10-22T02:32:17.688Z,3.97
2022-10-22T02:34:48.791Z,3.78
2022-10-22T02:37:21.637Z,5.50
2022-10-22T02:39:52.218Z,5.75
2022-10-22T02:42:20.992Z,4.57
2022-10-22T02:44:50.378Z,4.47
2022-10-22T02:47:20.832Z,4.05
2022-10-22T02:49:49.876Z,4.43
2022-10-22T02:52:18.885Z,5.43
2022-10-22T02:54:47.753Z,3.88
2022-10-22T02:57:18.712Z,4.60
2022-10-22T02:59:50.454Z,4.13
2022-10-22T03:02:23.594Z,5.53
2022-10-22T03:04:54.456Z,4.28
2022-10-22T03:07:25.814Z,4.30
2022-10-22T03:09:54.516Z,4.50
2022-10-22T03:12:25.829Z,3.75
2022-10-22T03:14:54.915Z,3.90
2022-10-22T03:17:27.713Z,5.57
2022-10-22T03:19:56.351Z,4.63
2022-10-22T03:22:32.281Z,5.05
2022-10-22T03:25:07.960Z,5.22
2022-10-22T03:27:38.643Z,3.33
2022-10-22T03:30:09.465Z,3.88
2022-10-22T03:32:39.887Z,3.97
2022-10-22T03:35:09.427Z,3.60
2022-10-22T03:37:39.156Z,5.03
2022-10-22T03:40:09.878Z,5.05
2022-10-22T03:42:39.289Z,4.35
2022-10-22T03:45:09.697Z,4.25
2022-10-22T03:47:42.202Z,4.07
2022-10-22T03:50:12.008Z,4.47
2022-10-22T03:52:41.345Z,4.55
2022-10-22T03:55:12.592Z,3.70
2022-10-22T03:57:41.381Z,3.65
2022-10-22T04:00:11.283Z,3.80
2022-10-22T04:02:43.819Z,5.07
2022-10-22T04:07:41.435Z,3.90
2022-10-22T04:10:10.723Z,3.63
2022-10-22T04:12:39.872Z,3.90
2022-10-22T04:15:10.282Z,4.53
2022-10-22T04:17:43.181Z,4.95
2022-10-22T04:20:12.640Z,4.32
2022-10-22T04:22:43.836Z,4.35
2022-10-22T04:25:12.514Z,4.18
2022-10-22T04:27:41.912Z,5.85
2022-10-22T04:30:11.987Z,4.53
2022-10-22T04:32:40.597Z,3.58
2022-10-22T04:35:12.871Z,3.83
2022-10-22T04:37:42.258Z,3.38
2022-10-22T04:40:12.839Z,4.50
2022-10-22T04:42:41.497Z,2.95
2022-10-22T04:45:11.310Z,4.03
2022-10-22T04:47:40.307Z,4.13
2022-10-22T04:50:09.785Z,5.22
2022-10-22T04:52:39.988Z,3.65
2022-10-22T04:55:09.247Z,4.72
2022-10-22T04:57:38.288Z,3.90
2022-10-22T05:00:08.635Z,3.65
2022-10-22T05:02:40.632Z,4.00
2022-10-22T05:05:09.640Z,3.00
2022-10-22T05:07:40.245Z,5.25
2022-10-22T05:10:11.572Z,3.38
2022-10-22T05:12:40.420Z,3.42
2022-10-22T05:15:10.553Z,3.80
2022-10-22T05:17:39.657Z,3.60
2022-10-22T05:20:09.854Z,3.55
2022-10-22T05:22:39.911Z,3.97
2022-10-22T05:25:09.444Z,3.85
2022-10-22T05:27:41.459Z,3.15
2022-10-22T05:30:13.626Z,4.53
2022-10-22T05:32:42.338Z,3.97
2022-10-22T05:35:11.480Z,3.67
2022-10-22T05:37:42.272Z,4.45
2022-10-22T05:40:26.662Z,3.42
2022-10-22T05:43:00.448Z,3.90
2022-10-22T05:45:31.821Z,4.05
2022-10-22T05:48:00.424Z,3.63
2022-10-22T05:50:31.558Z,3.30
2022-10-22T05:53:01.622Z,3.17
2022-10-22T05:55:30.560Z,4.38
2022-10-22T05:57:59.243Z,3.55
2022-10-22T06:00:30.662Z,4.65
2022-10-22T06:02:59.333Z,4.13
2022-10-22T06:05:28.239Z,5.20
2022-10-22T06:08:03.631Z,4.43
2022-10-22T06:10:32.967Z,4.38
2022-10-22T06:13:03.308Z,3.47
2022-10-22T06:15:31.966Z,4.65
2022-10-22T06:18:00.751Z,4.28
2022-10-22T06:20:34.798Z,5.03
2022-10-22T06:23:04.849Z,4.20
2022-10-22T06:25:33.923Z,3.83
2022-10-22T06:28:05.606Z,3.88
2022-10-22T06:30:34.247Z,3.72
2022-10-22T06:33:03.071Z,3.33
2022-10-22T06:35:31.703Z,6.10
2022-10-22T06:38:00.330Z,4.38
2022-10-22T06:40:33.633Z,4.18
2022-10-22T06:43:03.103Z,5.20
2022-10-22T06:45:31.750Z,4.75
2022-10-22T06:48:00.422Z,3.80
2022-10-22T06:50:31.654Z,4.20
2022-10-22T06:53:00.297Z,3.08
2022-10-22T06:55:31.407Z,3.42
2022-10-22T06:58:04.004Z,3.88
2022-10-22T07:03:04.567Z,4.57
2022-10-22T07:05:35.351Z,3.60
2022-10-22T07:08:04.003Z,3.92
2022-10-22T07:10:35.681Z,3.95
2022-10-22T07:13:05.997Z,12.48
2022-10-22T07:15:34.848Z,7.93
2022-10-22T07:18:04.803Z,4.20
2022-10-22T07:20:33.457Z,3.25
2022-10-22T07:23:02.726Z,3.72
2022-10-22T07:25:33.749Z,4.18
2022-10-22T07:28:02.649Z,3.38
2022-10-22T07:30:32.660Z,4.07
2022-10-22T07:33:01.392Z,3.25
2022-10-22T07:35:30.149Z,3.28
2022-10-22T07:37:59.290Z,3.72
2022-10-22T07:40:28.293Z,3.00
2022-10-22T07:42:56.922Z,3.92
2022-10-22T07:45:26.495Z,2.92
2022-10-22T07:47:56.846Z,3.38
2022-10-22T07:50:28.147Z,2.83
2022-10-22T07:52:58.221Z,4.85
2022-10-22T07:55:27.527Z,2.67
2022-10-22T07:57:59.843Z,2.47
2022-10-22T08:00:31.209Z,3.00
2022-10-22T08:03:01.670Z,3.08
2022-10-22T08:05:30.807Z,3.53
2022-10-22T08:08:02.278Z,3.60
2022-10-22T08:10:35.525Z,3.00
2022-10-22T08:13:05.389Z,3.28
2022-10-22T08:15:35.255Z,3.35
2022-10-22T08:18:06.198Z,3.53
2022-10-22T08:20:38.633Z,3.15
2022-10-22T08:23:07.336Z,4.45
2022-10-22T08:25:39.007Z,2.80
2022-10-22T08:28:10.017Z,2.40
2022-10-22T08:30:41.477Z,4.70
2022-10-22T08:33:11.745Z,3.10
2022-10-22T08:35:40.588Z,3.65
2022-10-22T08:38:09.208Z,3.45
2022-10-22T08:40:41.362Z,2.45
2022-10-22T08:43:33.945Z,4.10
2022-10-22T08:46:14.637Z,3.95
2022-10-22T08:48:54.042Z,3.03
2022-10-22T08:51:51.966Z,3.15
2022-10-22T08:54:33.054Z,3.28
2022-10-22T08:57:17.494Z,3.17
2022-10-22T08:59:55.651Z,3.33
2022-10-22T09:02:36.140Z,2.90
2022-10-22T09:05:29.411Z,2.95
2022-10-22T09:07:59.530Z,2.90
2022-10-22T09:10:34.470Z,3.38
2022-10-22T09:13:05.861Z,3.03
2022-10-22T09:19:07.345Z,2.92
2022-10-22T09:21:42.720Z,3.08
2022-10-22T09:24:18.347Z,3.67
2022-10-22T09:26:50.082Z,3.20
2022-10-22T09:29:27.402Z,4.03
2022-10-22T09:32:25.252Z,3.13
2022-10-22T09:34:57.619Z,3.25
2022-10-22T09:37:31.286Z,3.55
2022-10-22T09:40:06.143Z,2.53
2022-10-22T09:43:03.458Z,2.50
2022-10-22T09:45:33.525Z,2.40
2022-10-22T09:48:13.479Z,2.65
2022-10-22T09:50:45.250Z,3.40
2022-10-22T09:53:45.059Z,2.92
2022-10-22T09:56:30.789Z,2.70
2022-10-22T09:59:00.270Z,2.63
2022-10-22T10:01:33.767Z,2.90
2022-10-22T10:04:09.408Z,1.92
2022-10-22T10:06:40.385Z,2.65
2022-10-22T10:09:16.852Z,2.47
2022-10-22T10:11:50.636Z,2.80
2022-10-22T10:14:36.317Z,2.00
2022-10-22T10:17:17.456Z,2.92
2022-10-22T10:20:33.797Z,2.40
2022-10-22T10:23:10.343Z,3.08
2022-10-22T10:25:58.068Z,2.70
2022-10-22T10:28:49.385Z,1.90
2022-10-22T10:31:28.335Z,2.10
2022-10-22T10:34:34.941Z,3.53
2022-10-22T10:40:04.439Z,2.08
2022-10-22T10:42:40.788Z,2.60
2022-10-22T10:45:18.720Z,5.00
2022-10-22T10:48:28.849Z,2.72
2022-10-22T10:51:32.980Z,1.65
2022-10-22T10:54:16.539Z,3.45
2022-10-22T10:56:51.599Z,2.10
2022-10-22T10:59:36.053Z,2.17
2022-10-22T11:02:41.482Z,2.80
2022-10-22T11:05:29.402Z,2.85
2022-10-22T11:08:02.288Z,3.15
2022-10-22T11:10:38.436Z,2.50
2022-10-22T11:13:43.923Z,2.30
2022-10-22T11:16:21.993Z,3.17
2022-10-22T11:18:56.370Z,3.25
2022-10-22T11:21:31.727Z,3.13
2022-10-22T11:24:11.230Z,3.17
2022-10-22T11:26:46.999Z,3.08
2022-10-22T11:29:24.198Z,2.58
2022-10-22T11:31:58.061Z,2.30
2022-10-22T11:34:37.461Z,2.33
2022-10-22T11:37:41.731Z,2.93
2022-10-22T11:40:17.608Z,2.90
2022-10-22T11:42:49.068Z,2.80
2022-10-22T11:45:33.068Z,1.95
2022-10-22T11:48:16.934Z,3.13
2022-10-22T11:50:52.978Z,5.15
2022-10-22T11:53:32.608Z,2.65
2022-10-22T11:56:21.114Z,5.05
2022-10-22T11:58:54.769Z,3.30
2022-10-22T12:01:30.679Z,3.15
2022-10-22T12:04:22.028Z,3.08
2022-10-22T12:07:01.869Z,3.60
2022-10-22T12:09:34.400Z,3.33
2022-10-22T12:12:15.425Z,4.88
2022-10-22T12:14:55.389Z,2.78
2022-10-22T12:17:25.920Z,3.30
2022-10-22T12:20:02.454Z,4.85
2022-10-22T12:22:37.199Z,3.22
2022-10-22T12:25:20.091Z,3.80
2022-10-22T12:27:53.385Z,3.30
2022-10-22T12:30:26.161Z,3.17
2022-10-22T12:33:00.319Z,3.53
2022-10-22T12:35:35.663Z,3.80
2022-10-22T12:38:13.899Z,3.53
2022-10-22T12:41:14.504Z,2.45
2022-10-22T12:44:13.563Z,2.55
2022-10-22T12:47:16.568Z,3.97
2022-10-22T12:49:48.606Z,4.00
2022-10-22T12:52:22.083Z,2.95
2022-10-22T12:54:54.974Z,2.83
2022-10-22T12:59:54.107Z,2.60
2022-10-22T13:02:26.669Z,3.30
2022-10-22T13:05:21.830Z,3.17
2022-10-22T13:07:53.957Z,2.58
2022-10-22T13:11:21.158Z,3.40
2022-10-22T13:13:51.046Z,2.50
2022-10-22T13:17:03.305Z,2.47
2022-10-22T13:19:42.739Z,3.33
2022-10-22T13:22:26.837Z,2.45
2022-10-22T13:25:00.947Z,3.92
2022-10-22T13:27:32.687Z,2.80
2022-10-22T13:30:17.217Z,2.93
2022-10-22T13:32:51.749Z,2.63
2022-10-22T13:35:24.874Z,2.50
2022-10-22T13:40:24.550Z,8.70
2022-10-22T13:42:53.154Z,5.28
2022-10-22T13:45:22.381Z,3.28
2022-10-22T13:47:55.773Z,3.30
2022-10-22T13:50:26.781Z,2.97
2022-10-22T13:52:59.592Z,2.78
2022-10-22T13:55:34.290Z,3.33
2022-10-22T13:58:10.970Z,2.70
2022-10-22T14:00:45.491Z,2.55
2022-10-22T14:03:18.251Z,2.10
2022-10-22T14:05:47.733Z,6.07
2022-10-22T14:08:21.400Z,3.72
2022-10-22T14:10:55.638Z,2.88
2022-10-22T14:13:27.288Z,2.65
2022-10-22T14:15:56.282Z,4.20
2022-10-22T14:18:29.079Z,3.08
2022-10-22T14:23:30.781Z,2.95
2022-10-22T14:26:01.902Z,2.70
2022-10-22T14:28:31.586Z,3.97
2022-10-22T14:31:12.001Z,3.10
2022-10-22T14:33:41.591Z,2.85
2022-10-22T14:36:12.487Z,2.58
2022-10-22T14:38:41.355Z,3.20
2022-10-22T14:41:19.626Z,3.60
2022-10-22T14:43:49.033Z,3.17
2022-10-22T14:46:18.630Z,3.95
2022-10-22T14:48:47.982Z,3.55
2022-10-22T14:51:18.553Z,4.05
2022-10-22T14:53:47.897Z,2.92
2022-10-22T14:56:21.318Z,3.10
2022-10-22T14:58:50.722Z,3.05
2022-10-22T15:01:19.363Z,2.85
2022-10-22T15:03:50.163Z,2.58
2022-10-22T15:06:19.537Z,2.85
2022-10-22T15:08:48.199Z,2.88
2022-10-22T15:11:18.751Z,3.83
2022-10-22T15:13:47.403Z,2.92
2022-10-22T15:16:18.328Z,3.80
2022-10-22T15:18:47.098Z,3.55
2022-10-22T15:21:18.924Z,3.08
2022-10-22T15:23:47.879Z,4.13
2022-10-22T15:26:18.979Z,2.92
2022-10-22T15:28:47.543Z,2.75
2022-10-22T15:31:16.660Z,2.67
2022-10-22T15:33:45.631Z,2.63
2022-10-22T15:36:18.017Z,2.60
2022-10-22T15:38:49.487Z,5.25
2022-10-22T15:41:20.687Z,23.85
2022-10-22T15:43:49.670Z,4.30
2022-10-22T15:46:21.810Z,3.47
2022-10-22T15:48:50.546Z,3.40
2022-10-22T15:51:20.876Z,2.65
2022-10-22T15:53:52.935Z,3.33
2022-10-22T15:56:23.982Z,2.70
2022-10-22T15:58:56.470Z,3.00
2022-10-22T16:01:26.105Z,2.95
2022-10-22T16:04:02.565Z,3.27
2022-10-22T16:06:33.517Z,4.95
2022-10-22T16:09:05.005Z,5.20
2022-10-22T16:11:36.271Z,2.65
2022-10-22T16:14:06.181Z,3.30
2022-10-22T16:16:36.854Z,3.75
2022-10-22T16:19:05.482Z,3.42
2022-10-22T16:21:36.176Z,3.42
2022-10-22T16:24:06.399Z,3.60
2022-10-22T16:26:37.515Z,5.07
2022-10-22T16:29:08.460Z,3.03
2022-10-22T16:31:37.415Z,2.97
2022-10-22T16:34:05.945Z,3.05
2022-10-22T16:36:38.361Z,3.72
2022-10-22T16:39:07.818Z,2.63
2022-10-22T16:41:37.823Z,4.68
2022-10-22T16:44:08.821Z,3.60
2022-10-22T16:46:38.559Z,4.32
2022-10-22T16:49:07.822Z,3.50
2022-10-22T16:51:36.774Z,4.35
2022-10-22T16:54:08.389Z,4.25
2022-10-22T16:56:41.437Z,3.85
2022-10-22T16:59:13.875Z,2.88
2022-10-22T17:01:42.560Z,4.13
2022-10-22T17:04:11.536Z,3.40
2022-10-22T17:06:42.758Z,3.08
2022-10-22T17:09:12.069Z,3.53
2022-10-22T17:11:45.060Z,4.60
2022-10-22T17:14:18.316Z,5.40
2022-10-22T17:16:48.900Z,12.45
2022-10-22T17:19:18.036Z,11.77
2022-10-22T17:21:48.746Z,38.65
2022-10-22T17:24:18.036Z,8.35
2022-10-22T17:26:48.577Z,11.25
2022-10-22T17:29:18.243Z,6.78
2022-10-22T17:31:50.265Z,4.97
2022-10-22T17:34:21.745Z,5.18
2022-10-22T17:36:50.681Z,5.30
2022-10-22T17:39:19.686Z,5.60
2022-10-22T17:41:49.969Z,7.25
2022-10-22T17:44:22.541Z,6.47
2022-10-22T17:46:51.927Z,4.78
2022-10-22T17:49:22.773Z,4.47
2022-10-22T17:51:51.490Z,4.68
2022-10-22T17:54:20.409Z,4.10
2022-10-22T17:56:50.456Z,3.10
2022-10-22T17:59:19.885Z,3.63
2022-10-22T18:01:49.241Z,4.18
2022-10-22T18:04:20.158Z,4.00
2022-10-22T18:06:49.323Z,4.53
2022-10-22T18:09:20.350Z,4.93
2022-10-22T18:11:52.443Z,4.18
2022-10-22T18:14:22.957Z,3.25
2022-10-22T18:16:52.012Z,4.57
2022-10-22T18:19:23.316Z,5.80
2022-10-22T18:21:52.003Z,5.43
2022-10-22T18:24:22.922Z,7.07
2022-10-22T18:26:52.905Z,7.57
2022-10-22T18:29:21.509Z,8.48
2022-10-22T18:31:53.092Z,10.90
2022-10-22T18:34:24.817Z,8.75
2022-10-22T18:36:53.452Z,7.10
2022-10-22T18:39:22.286Z,7.20
2022-10-22T18:41:52.297Z,6.32
2022-10-22T18:44:21.384Z,7.78
2022-10-22T18:46:52.165Z,8.85
2022-10-22T18:49:23.793Z,7.47
2022-10-22T18:51:53.029Z,6.93
2022-10-22T18:54:24.890Z,7.32
2022-10-22T18:56:59.445Z,8.02
2022-10-22T18:59:31.542Z,8.15
2022-10-22T19:02:02.276Z,7.80
2022-10-22T19:04:36.775Z,9.13
2022-10-22T19:09:38.267Z,10.05
2022-10-22T19:12:12.740Z,7.97
2022-10-22T19:14:42.539Z,8.13
2022-10-22T19:17:11.686Z,8.77
2022-10-22T19:19:40.365Z,8.48
2022-10-22T19:22:09.263Z,8.90
2022-10-22T19:24:38.588Z,11.50
2022-10-22T19:27:10.851Z,10.45
2022-10-22T19:29:39.511Z,13.48
2022-10-22T19:32:11.706Z,12.15
2022-10-22T19:34:41.212Z,10.45
2022-10-22T19:37:12.120Z,42.42
2022-10-22T19:39:40.727Z,24.77
2022-10-22T19:42:13.760Z,13.15
2022-10-22T19:44:46.878Z,11.00
2022-10-22T19:47:18.098Z,12.43
2022-10-22T19:49:49.771Z,11.07
2022-10-22T19:52:21.735Z,11.18
2022-10-22T19:54:53.114Z,11.60
2022-10-22T19:57:25.586Z,13.02
2022-10-22T19:59:56.574Z,10.90
2022-10-22T20:02:26.180Z,10.73
2022-10-22T20:04:55.172Z,12.52
2022-10-22T20:07:25.897Z,12.32
2022-10-22T20:09:54.648Z,11.82
2022-10-22T20:14:57.524Z,12.23
2022-10-22T20:17:26.452Z,13.20
2022-10-22T20:19:58.286Z,10.80
2022-10-22T20:22:29.546Z,10.57
2022-10-22T20:24:58.274Z,11.18
2022-10-22T20:27:26.940Z,10.82
2022-10-22T20:29:57.450Z,10.70
2022-10-22T20:32:27.952Z,10.45
2022-10-22T20:34:56.629Z,11.73
2022-10-22T20:37:25.371Z,10.45
2022-10-22T20:39:56.219Z,11.18
2022-10-22T20:42:28.216Z,11.40
2022-10-22T20:45:00.861Z,10.82
2022-10-22T20:47:39.297Z,9.20
2022-10-22T20:50:21.263Z,10.50
2022-10-22T20:52:52.080Z,10.57
2022-10-22T20:55:23.156Z,11.13
2022-10-22T20:58:00.236Z,33.50
2022-10-22T21:01:05.447Z,19.52
2022-10-22T21:06:14.337Z,11.27
2022-10-22T21:08:47.947Z,11.18
2022-10-22T21:11:20.621Z,11.32
2022-10-22T21:13:49.302Z,11.55
2022-10-22T21:16:24.473Z,12.57
2022-10-22T21:18:58.437Z,11.13
2022-10-22T21:21:27.334Z,12.18
2022-10-22T21:23:56.353Z,10.40
2022-10-22T21:26:24.951Z,10.50
2022-10-22T21:28:53.788Z,11.65
2022-10-22T21:31:26.300Z,15.00
2022-10-22T21:33:57.202Z,12.05
2022-10-22T21:36:26.078Z,12.27
2022-10-22T21:38:57.082Z,11.80
2022-10-22T21:41:25.780Z,12.82
2022-10-22T21:43:54.569Z,12.63
2022-10-22T21:46:28.970Z,13.73
2022-10-22T21:49:01.163Z,14.57
2022-10-22T21:51:35.239Z,13.85
2022-10-22T21:54:04.147Z,12.93
2022-10-22T21:56:37.061Z,13.20
2022-10-22T21:59:10.838Z,12.80
2022-10-22T22:01:40.946Z,11.98
2022-10-22T22:04:09.609Z,13.32
2022-10-22T22:06:40.409Z,11.25
2022-10-22T22:09:09.323Z,12.00
2022-10-22T22:11:46.856Z,12.73
2022-10-22T22:14:15.598Z,12.27
2022-10-22T22:16:51.574Z,12.75
2022-10-22T22:19:20.149Z,12.13
2022-10-22T22:21:52.333Z,12.50
2022-10-22T22:24:23.798Z,11.68
2022-10-22T22:26:54.725Z,12.23
2022-10-22T22:29:24.146Z,13.27
2022-10-22T22:31:54.255Z,13.82
2022-10-22T22:34:23.286Z,13.02
2022-10-22T22:36:55.027Z,14.95
2022-10-22T22:39:24.629Z,12.90
2022-10-22T22:41:53.335Z,12.43
2022-10-22T22:44:22.445Z,12.50
2022-10-22T22:46:55.159Z,12.27
2022-10-22T22:49:24.111Z,12.85
2022-10-22T22:51:55.631Z,12.82
2022-10-22T22:54:24.817Z,12.45
2022-10-22T22:56:55.514Z,12.50
2022-10-22T22:59:27.643Z,11.20
2022-10-22T23:01:57.683Z,12.40
2022-10-22T23:04:27.110Z,11.18
2022-10-22T23:06:55.840Z,13.00
2022-10-22T23:09:27.237Z,11.43
2022-10-22T23:11:58.511Z,13.00
2022-10-22T23:14:27.410Z,11.20
2022-10-22T23:16:57.540Z,12.82
2022-10-22T23:19:26.339Z,11.80
2022-10-22T23:21:56.248Z,12.25
2022-10-22T23:24:27.404Z,12.07
2022-10-22T23:27:02.178Z,12.13
2022-10-22T23:29:33.003Z,12.13
2022-10-22T23:32:05.476Z,12.13
2022-10-22T23:34:37.232Z,12.20
2022-10-22T23:37:05.935Z,11.30
2022-10-22T23:39:34.805Z,11.48
2022-10-22T23:42:03.453Z,11.48
2022-10-22T23:44:32.029Z,11.88
2022-10-22T23:47:02.769Z,12.10
2022-10-22T23:49:31.446Z,12.23
2022-10-22T23:52:02.376Z,12.00
2022-10-22T23:54:31.327Z,12.30
2022-10-22T23:57:02.358Z,12.57
2022-10-22T23:59:33.401Z,11.88
